Saint Marys, Indiana
Current Conditions -  °F | °C
As of 4:54 AM on Friday 24 Oct 2014 (Local Time) from KSBN Reporting Station
Overcast Overcast  
Wind Chill: 11°   Ceiling: 3000
Heat Index: 11°   Visibility: 10mi
Dew Point:   Wind: 7mph
Humidity: 71%   Direction: 210°SSW
Pressure: 30.07"   Gusts: NA
Location:  41.7197°N, 86.2504°W
Report Text: KSBN 240854Z 21006KT 10SM BKN030 OVC035 11/06 A3007 RMK AO2 SLP182 T01060056 56010
Loading
Personal Weather Stations






























Interactive Weather Map
Tropical Storm Tracking
New forecast layout! Learn more

10-Day Weather Forecast

Advertisements
Track Severe Weather on mobile